createdAt,value
2023-04-09T00:01:04.847Z,9.30
2023-04-09T00:03:31.917Z,9.20
2023-04-09T00:05:58.980Z,9.20
2023-04-09T00:08:26.153Z,9.20
2023-04-09T00:10:54.080Z,9.20
2023-04-09T00:13:35.381Z,9.20
2023-04-09T00:16:06.243Z,9.20
2023-04-09T00:18:33.058Z,9.20
2023-04-09T00:20:59.951Z,9.20
2023-04-09T00:23:26.859Z,9.10
2023-04-09T00:25:53.826Z,9.20
2023-04-09T00:28:20.725Z,9.20
2023-04-09T00:30:47.596Z,9.30
2023-04-09T00:33:14.392Z,9.30
2023-04-09T00:35:41.493Z,9.20
2023-04-09T00:38:08.316Z,9.30
2023-04-09T00:40:35.476Z,9.20
2023-04-09T00:43:02.496Z,9.20
2023-04-09T00:45:29.631Z,9.20
2023-04-09T00:47:56.751Z,9.30
2023-04-09T00:50:23.679Z,9.30
2023-04-09T00:52:50.667Z,9.30
2023-04-09T00:55:18.967Z,9.30
2023-04-09T00:57:46.893Z,9.20
2023-04-09T01:00:14.343Z,8.90
2023-04-09T01:02:42.133Z,8.80
2023-04-09T01:05:10.801Z,8.60
2023-04-09T01:07:54.755Z,8.40
2023-04-09T01:10:38.183Z,8.50
2023-04-09T01:13:11.181Z,8.50
2023-04-09T01:15:52.002Z,8.60
2023-04-09T01:18:23.119Z,8.80
2023-04-09T01:20:57.891Z,9.00
2023-04-09T01:23:46.336Z,9.10
2023-04-09T01:26:41.339Z,9.10
2023-04-09T01:29:09.109Z,9.20
2023-04-09T01:31:40.551Z,9.20
2023-04-09T01:34:09.535Z,9.20
2023-04-09T01:36:39.726Z,9.10
2023-04-09T01:39:07.070Z,9.10
2023-04-09T01:41:35.498Z,9.20
2023-04-09T01:44:04.413Z,9.20
2023-04-09T01:46:32.010Z,9.20
2023-04-09T01:49:00.011Z,9.20
2023-04-09T01:51:27.349Z,9.30
2023-04-09T01:53:54.355Z,9.30
2023-04-09T01:56:21.435Z,9.30
2023-04-09T01:58:48.331Z,9.20
2023-04-09T02:01:33.543Z,9.20
2023-04-09T02:04:08.831Z,9.30
2023-04-09T02:06:45.650Z,9.30
2023-04-09T02:09:16.075Z,9.20
2023-04-09T02:11:46.135Z,9.20
2023-04-09T02:14:13.549Z,9.20
2023-04-09T02:16:41.493Z,9.30
2023-04-09T02:19:08.473Z,9.30
2023-04-09T02:21:35.414Z,9.20
2023-04-09T02:24:02.266Z,9.20
2023-04-09T02:26:29.100Z,9.30
2023-04-09T02:28:55.888Z,9.30
2023-04-09T02:31:22.844Z,9.30
2023-04-09T02:33:49.723Z,9.30
2023-04-09T02:36:16.607Z,9.30
2023-04-09T02:38:43.491Z,9.40
2023-04-09T02:41:10.784Z,9.30
2023-04-09T02:43:37.761Z,9.30
2023-04-09T02:46:04.823Z,9.20
2023-04-09T02:48:31.728Z,9.20
2023-04-09T02:50:59.015Z,9.20
2023-04-09T02:53:26.031Z,9.10
2023-04-09T02:55:52.909Z,9.10
2023-04-09T02:58:19.746Z,9.00
2023-04-09T03:00:46.647Z,8.80
2023-04-09T03:03:13.787Z,8.70
2023-04-09T03:05:40.844Z,8.80
2023-04-09T03:08:07.760Z,8.90
2023-04-09T03:10:34.602Z,8.90
2023-04-09T03:13:01.409Z,8.90
2023-04-09T03:15:28.225Z,8.80
2023-04-09T03:17:55.109Z,8.80
2023-04-09T03:20:21.970Z,8.90
2023-04-09T03:22:48.902Z,9.00
2023-04-09T03:25:15.850Z,8.90
2023-04-09T03:27:42.644Z,8.90
2023-04-09T03:30:10.162Z,8.80
2023-04-09T03:32:37.027Z,8.80
2023-04-09T03:35:04.145Z,8.80
2023-04-09T03:37:30.999Z,8.70
2023-04-09T03:39:57.830Z,8.60
2023-04-09T03:42:24.673Z,8.80
2023-04-09T03:44:54.336Z,8.80
2023-04-09T03:47:21.200Z,8.90
2023-04-09T03:49:48.036Z,8.90
2023-04-09T03:52:14.933Z,8.80
2023-04-09T03:54:43.469Z,8.80
2023-04-09T03:57:10.468Z,8.70
2023-04-09T03:59:37.332Z,8.70
2023-04-09T04:02:04.209Z,8.70
2023-04-09T04:04:31.188Z,8.70
2023-04-09T04:06:58.092Z,8.70
2023-04-09T04:09:24.954Z,8.60
2023-04-09T04:11:51.797Z,8.60
2023-04-09T04:14:18.700Z,8.60
2023-04-09T04:16:45.553Z,8.70
2023-04-09T04:19:12.866Z,8.60
2023-04-09T04:21:39.752Z,8.60
2023-04-09T04:24:06.853Z,8.70
2023-04-09T04:26:33.758Z,8.70
2023-04-09T04:29:00.938Z,8.60
2023-04-09T04:31:27.792Z,8.60
2023-04-09T04:33:54.642Z,8.60
2023-04-09T04:36:21.462Z,8.60
2023-04-09T04:38:48.372Z,8.50
2023-04-09T04:41:15.606Z,8.60
2023-04-09T04:43:42.457Z,8.50
2023-04-09T04:46:09.370Z,8.50
2023-04-09T04:48:36.248Z,8.50
2023-04-09T04:51:03.250Z,8.60
2023-04-09T04:53:30.321Z,8.60
2023-04-09T04:55:57.210Z,8.60
2023-04-09T04:58:24.992Z,8.60
2023-04-09T05:00:51.904Z,8.60
2023-04-09T05:03:18.849Z,8.60
2023-04-09T05:05:46.357Z,8.60
2023-04-09T05:08:13.293Z,8.60
2023-04-09T05:10:43.922Z,8.60
2023-04-09T05:13:10.902Z,8.60
2023-04-09T05:15:42.146Z,8.60
2023-04-09T05:18:09.163Z,8.60
2023-04-09T05:20:36.315Z,8.50
2023-04-09T05:23:03.300Z,8.50
2023-04-09T05:25:30.352Z,8.50
2023-04-09T05:27:57.370Z,8.50
2023-04-09T05:30:24.242Z,8.50
2023-04-09T05:32:51.203Z,8.40
2023-04-09T05:35:18.144Z,8.50
2023-04-09T05:37:45.012Z,8.50
2023-04-09T05:40:12.506Z,8.50
2023-04-09T05:42:39.577Z,8.50
2023-04-09T05:45:07.076Z,8.50
2023-04-09T05:47:35.104Z,8.50
2023-04-09T05:50:01.974Z,8.60
2023-04-09T05:52:28.767Z,8.70
2023-04-09T05:54:55.771Z,8.70
2023-04-09T05:57:22.680Z,8.80
2023-04-09T05:59:49.513Z,8.90
2023-04-09T06:02:16.610Z,8.90
2023-04-09T06:04:43.596Z,8.80
2023-04-09T06:07:10.804Z,8.90
2023-04-09T06:09:38.240Z,8.90
2023-04-09T06:12:05.101Z,8.90
2023-04-09T06:14:33.168Z,9.00
2023-04-09T06:17:00.434Z,8.90
2023-04-09T06:19:27.620Z,8.80
2023-04-09T06:21:54.777Z,8.80
2023-04-09T06:24:21.654Z,8.90
2023-04-09T06:26:48.679Z,8.90
2023-04-09T06:29:15.796Z,9.00
2023-04-09T06:31:42.791Z,9.00
2023-04-09T06:34:11.008Z,9.00
2023-04-09T06:36:40.296Z,9.00
2023-04-09T06:39:07.469Z,9.00
2023-04-09T06:41:34.316Z,9.00
2023-04-09T06:44:01.574Z,9.00
2023-04-09T06:46:28.790Z,9.00
2023-04-09T06:48:55.859Z,9.20
2023-04-09T06:51:22.811Z,9.20
2023-04-09T06:53:49.948Z,9.30
2023-04-09T06:56:17.107Z,9.20
2023-04-09T06:58:44.078Z,9.40
2023-04-09T07:01:11.082Z,9.40
2023-04-09T07:03:38.188Z,9.40
2023-04-09T07:06:05.177Z,9.40
2023-04-09T07:08:32.102Z,9.50
2023-04-09T07:10:59.022Z,9.60
2023-04-09T07:13:26.146Z,9.60
2023-04-09T07:15:53.106Z,9.50
2023-04-09T07:18:20.218Z,9.40
2023-04-09T07:20:47.076Z,9.20
2023-04-09T07:23:13.884Z,9.40
2023-04-09T07:25:40.730Z,9.60
2023-04-09T07:28:07.546Z,9.50
2023-04-09T07:30:34.417Z,9.40
2023-04-09T07:33:01.456Z,9.30
2023-04-09T07:35:28.317Z,9.50
2023-04-09T07:37:55.806Z,9.50
2023-04-09T07:40:22.806Z,9.50
2023-04-09T07:42:50.741Z,9.50
2023-04-09T07:45:17.705Z,9.50
2023-04-09T07:47:44.568Z,9.60
2023-04-09T07:50:12.030Z,9.40
2023-04-09T07:52:39.148Z,9.50
2023-04-09T07:55:06.421Z,9.70
2023-04-09T07:57:33.468Z,9.80
2023-04-09T08:00:00.453Z,9.80
2023-04-09T08:02:27.629Z,9.80
2023-04-09T08:04:54.858Z,9.80
2023-04-09T08:07:21.985Z,9.80
2023-04-09T08:09:48.818Z,9.80
2023-04-09T08:12:15.743Z,9.70
2023-04-09T08:14:43.898Z,9.70
2023-04-09T08:17:10.870Z,9.70
2023-04-09T08:19:40.462Z,9.60
2023-04-09T08:22:08.614Z,9.60
2023-04-09T08:24:35.615Z,9.60
2023-04-09T08:27:02.565Z,9.70
2023-04-09T08:29:29.677Z,9.80
2023-04-09T08:31:57.352Z,9.90
2023-04-09T08:34:24.218Z,10.10
2023-04-09T08:36:51.274Z,10.10
2023-04-09T08:39:21.257Z,10.10
2023-04-09T08:41:48.523Z,10.10
2023-04-09T08:44:15.576Z,10.20
2023-04-09T08:46:42.785Z,10.20
2023-04-09T08:49:10.959Z,10.40
2023-04-09T08:51:39.338Z,10.50
2023-04-09T08:54:06.974Z,10.60
2023-04-09T08:56:33.925Z,10.70
2023-04-09T08:59:00.846Z,10.80
2023-04-09T09:01:29.537Z,10.80
2023-04-09T09:04:05.094Z,10.80
2023-04-09T09:06:36.885Z,10.90
2023-04-09T09:09:14.098Z,11.00
2023-04-09T09:11:43.386Z,11.00
2023-04-09T09:14:14.896Z,11.10
2023-04-09T09:17:05.662Z,11.20
2023-04-09T09:19:33.817Z,11.30
2023-04-09T09:22:03.336Z,11.40
2023-04-09T09:24:30.863Z,11.50
2023-04-09T09:26:58.873Z,11.50
2023-04-09T09:29:27.627Z,11.70
2023-04-09T09:31:56.300Z,11.80
2023-04-09T09:34:25.040Z,11.80
2023-04-09T09:36:51.988Z,11.90
2023-04-09T09:39:18.995Z,12.00
2023-04-09T09:41:47.379Z,12.10
2023-04-09T09:44:32.137Z,12.20
2023-04-09T09:47:00.713Z,12.30
2023-04-09T09:49:27.560Z,12.40
2023-04-09T09:51:58.690Z,12.40
2023-04-09T09:54:29.069Z,12.60
2023-04-09T09:56:58.195Z,12.70
2023-04-09T09:59:31.021Z,12.70
2023-04-09T10:02:04.435Z,12.90
2023-04-09T10:04:38.135Z,13.00
2023-04-09T10:07:07.151Z,13.00
2023-04-09T10:09:46.587Z,13.00
2023-04-09T10:12:14.127Z,13.00
2023-04-09T10:14:42.640Z,13.00
2023-04-09T10:17:09.735Z,13.20
2023-04-09T10:19:42.036Z,13.20
2023-04-09T10:22:12.997Z,13.30
2023-04-09T10:24:41.239Z,13.50
2023-04-09T10:27:14.389Z,13.70
2023-04-09T10:29:52.138Z,13.80
2023-04-09T10:32:26.505Z,13.80
2023-04-09T10:34:57.327Z,13.90
2023-04-09T10:37:28.750Z,13.70
2023-04-09T10:39:56.623Z,13.90
2023-04-09T10:42:42.105Z,14.20
2023-04-09T10:45:14.895Z,14.50
2023-04-09T10:47:43.328Z,14.90
2023-04-09T10:50:26.983Z,15.30
2023-04-09T10:52:57.429Z,15.60
2023-04-09T10:55:37.477Z,15.50
2023-04-09T10:58:06.224Z,15.30
2023-04-09T11:00:38.274Z,15.50
2023-04-09T11:03:27.432Z,15.70
2023-04-09T11:06:11.637Z,16.00
2023-04-09T11:08:39.222Z,16.20
2023-04-09T11:11:06.144Z,15.90
2023-04-09T11:13:34.284Z,15.50
2023-04-09T11:16:04.173Z,15.40
2023-04-09T11:18:33.908Z,15.70
2023-04-09T11:21:03.805Z,16.20
2023-04-09T11:23:31.807Z,16.30
2023-04-09T11:25:58.762Z,16.30
2023-04-09T11:28:26.835Z,16.20
2023-04-09T11:30:54.033Z,16.70
2023-04-09T11:33:21.438Z,16.90
2023-04-09T11:35:48.844Z,16.60
2023-04-09T11:38:16.220Z,16.30
2023-04-09T11:40:51.560Z,16.20
2023-04-09T11:43:20.882Z,16.40
2023-04-09T11:45:48.696Z,17.30
2023-04-09T11:48:18.424Z,17.90
2023-04-09T11:50:46.694Z,18.10
2023-04-09T11:53:21.522Z,18.30
2023-04-09T11:55:51.440Z,18.00
2023-04-09T11:58:19.096Z,17.30
2023-04-09T12:00:46.207Z,17.20
2023-04-09T12:03:13.539Z,16.90
2023-04-09T12:05:50.642Z,17.30
2023-04-09T12:08:23.778Z,17.60
2023-04-09T12:10:53.339Z,17.70
2023-04-09T12:13:21.198Z,18.30
2023-04-09T12:15:49.533Z,18.70
2023-04-09T12:18:16.584Z,19.10
2023-04-09T12:20:44.743Z,19.50
2023-04-09T12:23:12.889Z,20.00
2023-04-09T12:25:41.562Z,20.40
2023-04-09T12:28:11.302Z,20.60
2023-04-09T12:30:38.273Z,20.90
2023-04-09T12:33:05.920Z,21.00
2023-04-09T12:35:34.566Z,20.60
2023-04-09T12:38:01.646Z,20.70
2023-04-09T12:40:28.485Z,21.40
2023-04-09T12:42:55.469Z,22.00
2023-04-09T12:45:22.696Z,22.70
2023-04-09T12:47:49.641Z,22.90
2023-04-09T12:50:16.756Z,22.00
2023-04-09T12:52:44.598Z,20.70
2023-04-09T12:55:12.446Z,20.70
2023-04-09T12:57:42.624Z,20.40
2023-04-09T13:00:10.208Z,19.60
2023-04-09T13:02:37.325Z,19.80
2023-04-09T13:05:04.791Z,20.40
2023-04-09T13:07:31.737Z,21.60
2023-04-09T13:09:58.635Z,22.50
2023-04-09T13:12:25.778Z,22.50
2023-04-09T13:14:54.477Z,21.90
2023-04-09T13:17:22.140Z,21.80
2023-04-09T13:19:50.464Z,21.90
2023-04-09T13:22:18.248Z,22.20
2023-04-09T13:24:45.176Z,22.70
2023-04-09T13:27:12.166Z,23.00
2023-04-09T13:29:39.043Z,23.70
2023-04-09T13:32:11.033Z,24.10
2023-04-09T13:34:39.504Z,23.90
2023-04-09T13:37:06.655Z,24.10
2023-04-09T13:39:33.537Z,24.50
2023-04-09T13:42:02.496Z,24.60
2023-04-09T13:44:32.649Z,23.90
2023-04-09T13:46:59.572Z,23.40
2023-04-09T13:49:27.410Z,22.60
2023-04-09T13:51:55.729Z,22.70
2023-04-09T13:54:22.651Z,23.00
2023-04-09T13:56:50.804Z,22.70
2023-04-09T13:59:17.892Z,23.10
2023-04-09T14:01:44.853Z,23.50
2023-04-09T14:04:11.872Z,23.30
2023-04-09T14:06:38.871Z,22.70
2023-04-09T14:09:05.804Z,22.20
2023-04-09T14:11:32.667Z,21.50
2023-04-09T14:13:59.569Z,21.00
2023-04-09T14:16:28.083Z,21.00
2023-04-09T14:18:55.361Z,21.30
2023-04-09T14:21:22.957Z,21.70
2023-04-09T14:23:49.953Z,22.20
2023-04-09T14:26:17.129Z,22.60
2023-04-09T14:28:44.877Z,22.00
2023-04-09T14:31:11.891Z,21.60
2023-04-09T14:33:38.991Z,21.80
2023-04-09T14:36:06.664Z,21.70
2023-04-09T14:38:34.600Z,21.10
2023-04-09T14:41:01.666Z,20.50
2023-04-09T14:43:28.541Z,19.70
2023-04-09T14:45:55.418Z,19.30
2023-04-09T14:48:22.398Z,19.00
2023-04-09T14:50:51.675Z,18.70
2023-04-09T14:53:18.556Z,18.60
2023-04-09T14:55:45.707Z,19.50
2023-04-09T14:58:12.585Z,20.70
2023-04-09T15:00:39.446Z,21.50
2023-04-09T15:03:06.416Z,22.30
2023-04-09T15:05:33.523Z,23.10
2023-04-09T15:08:00.386Z,23.90
2023-04-09T15:10:27.370Z,24.90
2023-04-09T15:12:54.348Z,25.30
2023-04-09T15:15:21.230Z,25.70
2023-04-09T15:17:48.114Z,26.10
2023-04-09T15:20:15.159Z,25.80
2023-04-09T15:22:42.025Z,25.30
2023-04-09T15:25:09.033Z,25.30
2023-04-09T15:27:36.077Z,25.30
2023-04-09T15:30:03.114Z,25.40
2023-04-09T15:32:30.977Z,25.50
2023-04-09T15:34:58.156Z,25.70
2023-04-09T15:37:25.037Z,25.60
2023-04-09T15:39:51.840Z,25.40
2023-04-09T15:42:22.590Z,25.10
2023-04-09T15:44:50.360Z,25.50
2023-04-09T15:47:17.656Z,25.60
2023-04-09T15:49:44.547Z,25.30
2023-04-09T15:52:11.505Z,24.80
2023-04-09T15:54:38.344Z,24.20
2023-04-09T15:57:05.238Z,23.70
2023-04-09T15:59:32.183Z,23.40
2023-04-09T16:01:59.179Z,23.10
2023-04-09T16:04:26.963Z,23.10
2023-04-09T16:06:55.458Z,23.10
2023-04-09T16:09:22.961Z,23.70
2023-04-09T16:11:51.059Z,24.00
2023-04-09T16:14:18.014Z,24.20
2023-04-09T16:16:49.658Z,24.30
2023-04-09T16:19:17.766Z,24.40
2023-04-09T16:21:45.538Z,24.60
2023-04-09T16:24:13.194Z,24.70
2023-04-09T16:26:44.225Z,24.40
2023-04-09T16:29:11.435Z,24.50
2023-04-09T16:31:41.844Z,24.50
2023-04-09T16:34:08.875Z,24.40
2023-04-09T16:36:37.142Z,24.10
2023-04-09T16:39:05.020Z,24.10
2023-04-09T16:41:33.203Z,24.30
2023-04-09T16:44:00.728Z,24.30
2023-04-09T16:46:27.685Z,24.30
2023-04-09T16:48:54.886Z,24.20
2023-04-09T16:51:21.918Z,23.90
2023-04-09T16:53:51.663Z,23.60
2023-04-09T16:56:18.583Z,23.60
2023-04-09T16:58:46.596Z,23.40
2023-04-09T17:01:13.480Z,23.30
2023-04-09T17:03:40.441Z,22.90
2023-04-09T17:06:07.724Z,22.60
2023-04-09T17:08:35.695Z,22.40
2023-04-09T17:11:02.778Z,22.40
2023-04-09T17:13:31.733Z,22.20
2023-04-09T17:15:58.908Z,22.10
2023-04-09T17:18:25.934Z,21.90
2023-04-09T17:20:53.359Z,21.20
2023-04-09T17:23:21.746Z,20.60
2023-04-09T17:25:49.163Z,19.80
2023-04-09T17:28:18.686Z,19.00
2023-04-09T17:30:46.076Z,18.50
2023-04-09T17:33:13.426Z,18.10
2023-04-09T17:35:42.106Z,17.80
2023-04-09T17:38:09.202Z,17.40
2023-04-09T17:40:36.128Z,17.10
2023-04-09T17:43:02.906Z,16.80
2023-04-09T17:45:29.826Z,16.60
2023-04-09T17:47:57.351Z,16.30
2023-04-09T17:50:24.800Z,16.30
2023-04-09T17:52:51.741Z,16.20
2023-04-09T17:55:19.325Z,16.10
2023-04-09T17:57:46.274Z,16.00
2023-04-09T18:00:13.722Z,15.70
2023-04-09T18:02:40.966Z,15.60
2023-04-09T18:05:08.422Z,15.40
2023-04-09T18:07:35.482Z,15.40
2023-04-09T18:10:06.277Z,15.20
2023-04-09T18:12:33.123Z,15.20
2023-04-09T18:14:59.999Z,15.10
2023-04-09T18:17:26.832Z,15.00
2023-04-09T18:19:54.961Z,14.90
2023-04-09T18:22:22.597Z,14.70
2023-04-09T18:24:49.438Z,14.70
2023-04-09T18:27:17.739Z,14.60
2023-04-09T18:29:44.686Z,14.50
2023-04-09T18:32:12.492Z,14.50
2023-04-09T18:34:39.418Z,14.50
2023-04-09T18:37:06.409Z,14.40
2023-04-09T18:39:34.533Z,14.30
2023-04-09T18:42:02.585Z,14.20
2023-04-09T18:44:29.424Z,14.00
2023-04-09T18:46:56.369Z,14.00
2023-04-09T18:49:23.411Z,14.00
2023-04-09T18:51:50.394Z,13.90
2023-04-09T18:54:17.186Z,13.80
2023-04-09T18:56:46.490Z,13.70
2023-04-09T18:59:13.508Z,13.70
2023-04-09T19:01:40.534Z,13.70
2023-04-09T19:04:07.539Z,13.60
2023-04-09T19:06:36.062Z,13.60
2023-04-09T19:09:04.499Z,13.50
2023-04-09T19:11:31.341Z,13.40
2023-04-09T19:13:58.144Z,13.40
2023-04-09T19:16:25.148Z,13.40
2023-04-09T19:18:52.277Z,13.40
2023-04-09T19:21:19.502Z,13.30
2023-04-09T19:23:46.777Z,13.20
2023-04-09T19:26:14.418Z,13.10
2023-04-09T19:28:41.327Z,13.00
2023-04-09T19:31:08.399Z,12.90
2023-04-09T19:33:35.433Z,12.80
2023-04-09T19:36:02.610Z,12.80
2023-04-09T19:38:29.860Z,12.80
2023-04-09T19:40:56.769Z,12.70
2023-04-09T19:43:23.558Z,12.70
2023-04-09T19:45:50.529Z,12.60
2023-04-09T19:48:17.420Z,12.60
2023-04-09T19:50:45.548Z,12.60
2023-04-09T19:53:12.459Z,12.50
2023-04-09T19:55:39.398Z,12.50
2023-04-09T19:58:07.089Z,12.40
2023-04-09T20:00:34.683Z,12.40
2023-04-09T20:03:02.939Z,12.40
2023-04-09T20:05:30.166Z,12.30
2023-04-09T20:07:57.046Z,12.30
2023-04-09T20:10:24.043Z,12.20
2023-04-09T20:12:51.347Z,12.10
2023-04-09T20:15:21.755Z,12.10
2023-04-09T20:17:49.409Z,12.00
2023-04-09T20:20:20.574Z,12.00
2023-04-09T20:22:55.507Z,12.00
2023-04-09T20:25:23.734Z,12.00
2023-04-09T20:27:53.197Z,11.90
2023-04-09T20:30:20.501Z,11.90
2023-04-09T20:32:48.994Z,11.80
2023-04-09T20:35:16.334Z,11.70
2023-04-09T20:37:43.340Z,11.60
2023-04-09T20:40:11.906Z,11.60
2023-04-09T20:42:40.882Z,11.60
2023-04-09T20:45:09.037Z,11.60
2023-04-09T20:47:36.293Z,11.50
2023-04-09T20:50:03.393Z,11.60
2023-04-09T20:52:30.522Z,11.50
2023-04-09T20:54:57.779Z,11.40
2023-04-09T20:57:24.796Z,11.40
2023-04-09T20:59:52.961Z,11.50
2023-04-09T21:02:20.247Z,11.40
2023-04-09T21:04:47.172Z,11.40
2023-04-09T21:07:14.083Z,11.40
2023-04-09T21:09:41.072Z,11.40
2023-04-09T21:12:07.919Z,11.30
2023-04-09T21:14:34.820Z,11.20
2023-04-09T21:17:01.750Z,11.10
2023-04-09T21:19:28.678Z,11.20
2023-04-09T21:21:55.589Z,11.20
2023-04-09T21:24:22.470Z,11.20
2023-04-09T21:26:51.991Z,11.10
2023-04-09T21:29:22.434Z,11.10
2023-04-09T21:31:49.934Z,11.20
2023-04-09T21:34:16.848Z,11.20
2023-04-09T21:36:45.395Z,11.10
2023-04-09T21:39:12.585Z,11.10
2023-04-09T21:41:39.596Z,11.10
2023-04-09T21:44:08.616Z,11.10
2023-04-09T21:46:37.011Z,11.00
2023-04-09T21:49:04.502Z,11.00
2023-04-09T21:51:32.092Z,10.90
2023-04-09T21:54:04.231Z,10.80
2023-04-09T21:56:32.208Z,10.80
2023-04-09T21:58:59.294Z,10.70
2023-04-09T22:01:29.341Z,10.60
2023-04-09T22:04:00.283Z,10.60
2023-04-09T22:06:28.954Z,10.70
2023-04-09T22:08:57.359Z,10.60
2023-04-09T22:11:29.207Z,10.70
2023-04-09T22:13:57.293Z,10.70
2023-04-09T22:16:25.151Z,10.70
2023-04-09T22:18:53.533Z,10.60
2023-04-09T22:21:20.774Z,10.50
2023-04-09T22:23:47.675Z,10.40
2023-04-09T22:26:14.533Z,10.30
2023-04-09T22:28:41.318Z,10.20
2023-04-09T22:31:08.621Z,10.30
2023-04-09T22:33:35.581Z,10.30
2023-04-09T22:36:02.542Z,10.20
2023-04-09T22:38:29.461Z,10.20
2023-04-09T22:40:56.434Z,10.10
2023-04-09T22:43:23.289Z,10.10
2023-04-09T22:45:52.272Z,10.00
2023-04-09T22:48:20.482Z,10.00
2023-04-09T22:50:48.755Z,10.00
2023-04-09T22:53:19.036Z,10.00
2023-04-09T22:55:51.266Z,10.00
2023-04-09T22:58:18.677Z,9.90
2023-04-09T23:00:46.981Z,9.90
2023-04-09T23:03:14.084Z,9.80
2023-04-09T23:05:41.265Z,9.90
2023-04-09T23:08:08.380Z,9.90
2023-04-09T23:10:35.886Z,9.80
2023-04-09T23:13:02.873Z,9.70
2023-04-09T23:15:29.719Z,9.70
2023-04-09T23:17:56.760Z,9.70
2023-04-09T23:20:23.759Z,9.70
2023-04-09T23:22:50.852Z,9.60
2023-04-09T23:25:18.139Z,9.60
2023-04-09T23:27:45.063Z,9.60
2023-04-09T23:30:16.627Z,9.60
2023-04-09T23:32:47.707Z,9.60
2023-04-09T23:35:14.802Z,9.60
2023-04-09T23:37:45.558Z,9.50
2023-04-09T23:40:12.779Z,9.40
2023-04-09T23:42:39.599Z,9.40
2023-04-09T23:45:07.337Z,9.50
2023-04-09T23:47:35.854Z,9.50
2023-04-09T23:50:07.318Z,9.70
2023-04-09T23:52:36.464Z,9.70
2023-04-09T23:55:04.463Z,9.70
2023-04-09T23:57:31.441Z,9.70
2023-04-09T23:59:58.853Z,9.60
